sensor_id;sensor_type;location;lat;lon;timestamp;P1;durP1;ratioP1;P2;durP2;ratioP2
12026;SDS011;6074;52.676;7.284;2022-08-11T00:01:43;0.70;;;0.70;;
12026;SDS011;6074;52.676;7.284;2022-08-11T00:04:11;0.60;;;0.60;;
12026;SDS011;6074;52.676;7.284;2022-08-11T00:06:40;0.60;;;0.60;;
12026;SDS011;6074;52.676;7.284;2022-08-11T00:09:07;0.70;;;0.70;;
12026;SDS011;6074;52.676;7.284;2022-08-11T00:11:37;0.80;;;0.80;;
12026;SDS011;6074;52.676;7.284;2022-08-11T00:14:13;0.70;;;0.70;;
12026;SDS011;6074;52.676;7.284;2022-08-11T00:16:42;0.70;;;0.70;;
12026;SDS011;6074;52.676;7.284;2022-08-11T00:19:19;0.80;;;0.80;;
12026;SDS011;6074;52.676;7.284;2022-08-11T00:21:47;0.60;;;0.60;;
12026;SDS011;6074;52.676;7.284;2022-08-11T00:24:14;0.60;;;0.60;;
12026;SDS011;6074;52.676;7.284;2022-08-11T00:26:45;0.60;;;0.60;;
12026;SDS011;6074;52.676;7.284;2022-08-11T00:29:14;0.70;;;0.70;;
12026;SDS011;6074;52.676;7.284;2022-08-11T00:31:42;0.70;;;0.70;;
12026;SDS011;6074;52.676;7.284;2022-08-11T00:34:12;0.70;;;0.70;;
12026;SDS011;6074;52.676;7.284;2022-08-11T00:36:41;0.73;;;0.73;;
12026;SDS011;6074;52.676;7.284;2022-08-11T00:39:12;0.50;;;0.50;;
12026;SDS011;6074;52.676;7.284;2022-08-11T00:41:41;0.70;;;0.70;;
12026;SDS011;6074;52.676;7.284;2022-08-11T00:44:21;0.53;;;0.53;;
12026;SDS011;6074;52.676;7.284;2022-08-11T00:46:56;0.50;;;0.50;;
12026;SDS011;6074;52.676;7.284;2022-08-11T00:49:42;0.60;;;0.60;;
12026;SDS011;6074;52.676;7.284;2022-08-11T00:52:25;0.80;;;0.80;;
12026;SDS011;6074;52.676;7.284;2022-08-11T00:58:17;0.60;;;0.60;;
12026;SDS011;6074;52.676;7.284;2022-08-11T01:01:12;0.60;;;0.60;;
12026;SDS011;6074;52.676;7.284;2022-08-11T01:10:02;0.60;;;0.60;;
12026;SDS011;6074;52.676;7.284;2022-08-11T01:12:42;0.70;;;0.70;;
12026;SDS011;6074;52.676;7.284;2022-08-11T01:15:22;0.80;;;0.80;;
12026;SDS011;6074;52.676;7.284;2022-08-11T01:27:31;0.77;;;0.77;;
12026;SDS011;6074;52.676;7.284;2022-08-11T01:30:40;0.70;;;0.70;;
12026;SDS011;6074;52.676;7.284;2022-08-11T01:36:49;0.70;;;0.70;;
12026;SDS011;6074;52.676;7.284;2022-08-11T01:42:41;0.70;;;0.70;;
12026;SDS011;6074;52.676;7.284;2022-08-11T01:45:53;0.60;;;0.60;;
12026;SDS011;6074;52.676;7.284;2022-08-11T01:48:29;0.60;;;0.60;;
12026;SDS011;6074;52.676;7.284;2022-08-11T01:51:07;0.70;;;0.70;;
12026;SDS011;6074;52.676;7.284;2022-08-11T01:53:50;0.77;;;0.77;;
12026;SDS011;6074;52.676;7.284;2022-08-11T01:56:29;0.70;;;0.70;;
12026;SDS011;6074;52.676;7.284;2022-08-11T01:59:07;0.60;;;0.60;;
12026;SDS011;6074;52.676;7.284;2022-08-11T02:01:51;0.60;;;0.60;;
12026;SDS011;6074;52.676;7.284;2022-08-11T02:04:28;0.70;;;0.70;;
12026;SDS011;6074;52.676;7.284;2022-08-11T02:07:00;0.70;;;0.70;;
12026;SDS011;6074;52.676;7.284;2022-08-11T02:09:46;0.70;;;0.70;;
12026;SDS011;6074;52.676;7.284;2022-08-11T02:12:25;0.70;;;0.70;;
12026;SDS011;6074;52.676;7.284;2022-08-11T02:15:06;0.70;;;0.70;;
12026;SDS011;6074;52.676;7.284;2022-08-11T02:17:40;0.67;;;0.67;;
12026;SDS011;6074;52.676;7.284;2022-08-11T02:20:15;0.77;;;0.77;;
12026;SDS011;6074;52.676;7.284;2022-08-11T02:23:08;0.80;;;0.80;;
12026;SDS011;6074;52.676;7.284;2022-08-11T02:26:03;0.70;;;0.70;;
12026;SDS011;6074;52.676;7.284;2022-08-11T02:28:36;0.60;;;0.60;;
12026;SDS011;6074;52.676;7.284;2022-08-11T02:31:14;0.70;;;0.70;;
12026;SDS011;6074;52.676;7.284;2022-08-11T02:34:08;0.50;;;0.50;;
12026;SDS011;6074;52.676;7.284;2022-08-11T02:36:48;0.80;;;0.80;;
12026;SDS011;6074;52.676;7.284;2022-08-11T02:39:20;0.60;;;0.60;;
12026;SDS011;6074;52.676;7.284;2022-08-11T02:41:58;0.70;;;0.70;;
12026;SDS011;6074;52.676;7.284;2022-08-11T02:44:56;0.60;;;0.60;;
12026;SDS011;6074;52.676;7.284;2022-08-11T02:47:34;0.70;;;0.70;;
12026;SDS011;6074;52.676;7.284;2022-08-11T02:50:11;0.60;;;0.60;;
12026;SDS011;6074;52.676;7.284;2022-08-11T02:52:46;0.70;;;0.70;;
12026;SDS011;6074;52.676;7.284;2022-08-11T02:55:25;0.80;;;0.80;;
12026;SDS011;6074;52.676;7.284;2022-08-11T02:57:58;0.67;;;0.67;;
12026;SDS011;6074;52.676;7.284;2022-08-11T03:00:41;0.70;;;0.70;;
12026;SDS011;6074;52.676;7.284;2022-08-11T03:03:14;0.63;;;0.63;;
12026;SDS011;6074;52.676;7.284;2022-08-11T03:06:01;0.70;;;0.70;;
12026;SDS011;6074;52.676;7.284;2022-08-11T03:08:43;0.60;;;0.60;;
12026;SDS011;6074;52.676;7.284;2022-08-11T03:11:17;0.60;;;0.60;;
12026;SDS011;6074;52.676;7.284;2022-08-11T03:14:11;0.60;;;0.60;;
12026;SDS011;6074;52.676;7.284;2022-08-11T03:17:02;0.60;;;0.60;;
12026;SDS011;6074;52.676;7.284;2022-08-11T03:19:42;0.70;;;0.70;;
12026;SDS011;6074;52.676;7.284;2022-08-11T03:22:16;0.60;;;0.60;;
12026;SDS011;6074;52.676;7.284;2022-08-11T03:24:52;0.60;;;0.60;;
12026;SDS011;6074;52.676;7.284;2022-08-11T03:27:35;0.70;;;0.70;;
12026;SDS011;6074;52.676;7.284;2022-08-11T03:30:13;0.60;;;0.60;;
12026;SDS011;6074;52.676;7.284;2022-08-11T03:32:55;0.60;;;0.60;;
12026;SDS011;6074;52.676;7.284;2022-08-11T03:35:53;0.60;;;0.60;;
12026;SDS011;6074;52.676;7.284;2022-08-11T03:38:35;0.60;;;0.60;;
12026;SDS011;6074;52.676;7.284;2022-08-11T03:41:17;0.50;;;0.50;;
12026;SDS011;6074;52.676;7.284;2022-08-11T03:44:22;0.60;;;0.60;;
12026;SDS011;6074;52.676;7.284;2022-08-11T03:47:05;0.60;;;0.60;;
12026;SDS011;6074;52.676;7.284;2022-08-11T03:49:46;0.73;;;0.73;;
12026;SDS011;6074;52.676;7.284;2022-08-11T03:52:25;0.70;;;0.70;;
12026;SDS011;6074;52.676;7.284;2022-08-11T03:55:03;0.60;;;0.60;;
12026;SDS011;6074;52.676;7.284;2022-08-11T03:57:47;0.70;;;0.70;;
12026;SDS011;6074;52.676;7.284;2022-08-11T04:01:00;0.60;;;0.60;;
12026;SDS011;6074;52.676;7.284;2022-08-11T04:04:16;0.60;;;0.60;;
12026;SDS011;6074;52.676;7.284;2022-08-11T04:07:23;0.67;;;0.67;;
12026;SDS011;6074;52.676;7.284;2022-08-11T04:10:27;0.67;;;0.67;;
12026;SDS011;6074;52.676;7.284;2022-08-11T04:13:34;0.60;;;0.60;;
12026;SDS011;6074;52.676;7.284;2022-08-11T04:16:29;0.50;;;0.50;;
12026;SDS011;6074;52.676;7.284;2022-08-11T04:22:34;0.70;;;0.70;;
12026;SDS011;6074;52.676;7.284;2022-08-11T04:25:28;0.60;;;0.60;;
12026;SDS011;6074;52.676;7.284;2022-08-11T04:31:30;0.60;;;0.60;;
12026;SDS011;6074;52.676;7.284;2022-08-11T04:43:26;0.60;;;0.60;;
12026;SDS011;6074;52.676;7.284;2022-08-11T04:46:25;0.73;;;0.73;;
12026;SDS011;6074;52.676;7.284;2022-08-11T04:49:15;0.60;;;0.60;;
12026;SDS011;6074;52.676;7.284;2022-08-11T04:52:16;0.70;;;0.70;;
12026;SDS011;6074;52.676;7.284;2022-08-11T04:55:28;0.60;;;0.60;;
12026;SDS011;6074;52.676;7.284;2022-08-11T04:58:24;0.70;;;0.70;;
12026;SDS011;6074;52.676;7.284;2022-08-11T05:01:28;0.70;;;0.70;;
12026;SDS011;6074;52.676;7.284;2022-08-11T05:04:13;0.60;;;0.60;;
12026;SDS011;6074;52.676;7.284;2022-08-11T05:07:17;0.70;;;0.70;;
12026;SDS011;6074;52.676;7.284;2022-08-11T05:10:02;0.70;;;0.70;;
12026;SDS011;6074;52.676;7.284;2022-08-11T05:12:43;0.60;;;0.60;;
12026;SDS011;6074;52.676;7.284;2022-08-11T05:15:15;0.70;;;0.70;;
12026;SDS011;6074;52.676;7.284;2022-08-11T05:18:06;0.70;;;0.70;;
12026;SDS011;6074;52.676;7.284;2022-08-11T05:20:56;0.60;;;0.60;;
12026;SDS011;6074;52.676;7.284;2022-08-11T05:23:47;0.70;;;0.70;;
12026;SDS011;6074;52.676;7.284;2022-08-11T05:26:44;0.67;;;0.67;;
12026;SDS011;6074;52.676;7.284;2022-08-11T05:29:41;0.60;;;0.60;;
12026;SDS011;6074;52.676;7.284;2022-08-11T05:32:32;0.60;;;0.60;;
12026;SDS011;6074;52.676;7.284;2022-08-11T05:35:23;0.60;;;0.60;;
12026;SDS011;6074;52.676;7.284;2022-08-11T05:37:55;0.70;;;0.70;;
12026;SDS011;6074;52.676;7.284;2022-08-11T05:40:45;0.60;;;0.60;;
12026;SDS011;6074;52.676;7.284;2022-08-11T05:43:31;0.60;;;0.60;;
12026;SDS011;6074;52.676;7.284;2022-08-11T05:46:18;0.70;;;0.70;;
12026;SDS011;6074;52.676;7.284;2022-08-11T05:49:07;0.70;;;0.70;;
12026;SDS011;6074;52.676;7.284;2022-08-11T05:51:52;0.70;;;0.70;;
12026;SDS011;6074;52.676;7.284;2022-08-11T05:54:37;0.80;;;0.80;;
12026;SDS011;6074;52.676;7.284;2022-08-11T05:57:27;0.70;;;0.70;;
12026;SDS011;6074;52.676;7.284;2022-08-11T05:59:57;0.60;;;0.60;;
12026;SDS011;6074;52.676;7.284;2022-08-11T06:02:28;0.70;;;0.70;;
12026;SDS011;6074;52.676;7.284;2022-08-11T06:04:56;0.90;;;0.90;;
12026;SDS011;6074;52.676;7.284;2022-08-11T06:07:26;0.70;;;0.70;;
12026;SDS011;6074;52.676;7.284;2022-08-11T06:09:54;0.70;;;0.70;;
12026;SDS011;6074;52.676;7.284;2022-08-11T06:12:25;0.60;;;0.60;;
12026;SDS011;6074;52.676;7.284;2022-08-11T06:14:56;0.70;;;0.70;;
12026;SDS011;6074;52.676;7.284;2022-08-11T06:17:27;0.70;;;0.70;;
12026;SDS011;6074;52.676;7.284;2022-08-11T06:19:57;0.70;;;0.70;;
12026;SDS011;6074;52.676;7.284;2022-08-11T06:22:25;0.80;;;0.80;;
12026;SDS011;6074;52.676;7.284;2022-08-11T06:24:55;0.70;;;0.70;;
12026;SDS011;6074;52.676;7.284;2022-08-11T06:27:23;0.67;;;0.67;;
12026;SDS011;6074;52.676;7.284;2022-08-11T06:29:51;0.70;;;0.70;;
12026;SDS011;6074;52.676;7.284;2022-08-11T06:32:19;0.80;;;0.80;;
12026;SDS011;6074;52.676;7.284;2022-08-11T06:34:57;0.60;;;0.60;;
12026;SDS011;6074;52.676;7.284;2022-08-11T06:37:34;0.60;;;0.60;;
12026;SDS011;6074;52.676;7.284;2022-08-11T06:40:10;0.70;;;0.70;;
12026;SDS011;6074;52.676;7.284;2022-08-11T06:42:47;0.70;;;0.70;;
12026;SDS011;6074;52.676;7.284;2022-08-11T06:45:24;0.80;;;0.80;;
12026;SDS011;6074;52.676;7.284;2022-08-11T06:47:54;0.70;;;0.70;;
12026;SDS011;6074;52.676;7.284;2022-08-11T06:50:26;0.67;;;0.67;;
12026;SDS011;6074;52.676;7.284;2022-08-11T06:53:14;0.60;;;0.60;;
12026;SDS011;6074;52.676;7.284;2022-08-11T06:55:44;0.70;;;0.70;;
12026;SDS011;6074;52.676;7.284;2022-08-11T06:58:31;0.70;;;0.70;;
12026;SDS011;6074;52.676;7.284;2022-08-11T07:01:21;0.60;;;0.60;;
12026;SDS011;6074;52.676;7.284;2022-08-11T07:04:00;0.60;;;0.60;;
12026;SDS011;6074;52.676;7.284;2022-08-11T07:10:12;0.70;;;0.70;;
12026;SDS011;6074;52.676;7.284;2022-08-11T07:13:07;0.70;;;0.70;;
12026;SDS011;6074;52.676;7.284;2022-08-11T07:15:55;0.60;;;0.60;;
12026;SDS011;6074;52.676;7.284;2022-08-11T07:18:24;0.70;;;0.70;;
12026;SDS011;6074;52.676;7.284;2022-08-11T07:21:11;0.60;;;0.60;;
12026;SDS011;6074;52.676;7.284;2022-08-11T07:24:03;0.60;;;0.60;;
12026;SDS011;6074;52.676;7.284;2022-08-11T07:26:54;0.70;;;0.70;;
12026;SDS011;6074;52.676;7.284;2022-08-11T07:29:39;0.63;;;0.63;;
12026;SDS011;6074;52.676;7.284;2022-08-11T07:32:12;0.60;;;0.60;;
12026;SDS011;6074;52.676;7.284;2022-08-11T07:34:44;0.70;;;0.70;;
12026;SDS011;6074;52.676;7.284;2022-08-11T07:37:15;0.67;;;0.67;;
12026;SDS011;6074;52.676;7.284;2022-08-11T07:39:46;0.70;;;0.70;;
12026;SDS011;6074;52.676;7.284;2022-08-11T07:42:14;0.70;;;0.70;;
12026;SDS011;6074;52.676;7.284;2022-08-11T07:44:46;0.70;;;0.70;;
12026;SDS011;6074;52.676;7.284;2022-08-11T07:47:31;0.70;;;0.70;;
12026;SDS011;6074;52.676;7.284;2022-08-11T07:50:19;0.70;;;0.70;;
12026;SDS011;6074;52.676;7.284;2022-08-11T07:53:04;0.67;;;0.67;;
12026;SDS011;6074;52.676;7.284;2022-08-11T07:55:32;0.70;;;0.70;;
12026;SDS011;6074;52.676;7.284;2022-08-11T07:58:00;0.70;;;0.70;;
12026;SDS011;6074;52.676;7.284;2022-08-11T08:00:47;0.80;;;0.80;;
12026;SDS011;6074;52.676;7.284;2022-08-11T08:03:33;0.70;;;0.70;;
12026;SDS011;6074;52.676;7.284;2022-08-11T08:06:18;0.70;;;0.70;;
12026;SDS011;6074;52.676;7.284;2022-08-11T08:09:03;0.70;;;0.70;;
12026;SDS011;6074;52.676;7.284;2022-08-11T08:11:51;0.70;;;0.70;;
12026;SDS011;6074;52.676;7.284;2022-08-11T08:14:36;0.73;;;0.73;;
12026;SDS011;6074;52.676;7.284;2022-08-11T08:17:21;0.50;;;0.50;;
12026;SDS011;6074;52.676;7.284;2022-08-11T08:20:07;0.70;;;0.70;;
12026;SDS011;6074;52.676;7.284;2022-08-11T08:22:38;0.70;;;0.70;;
12026;SDS011;6074;52.676;7.284;2022-08-11T08:25:06;0.80;;;0.80;;
12026;SDS011;6074;52.676;7.284;2022-08-11T08:27:35;0.60;;;0.60;;
12026;SDS011;6074;52.676;7.284;2022-08-11T08:30:04;0.60;;;0.60;;
12026;SDS011;6074;52.676;7.284;2022-08-11T08:32:49;0.60;;;0.60;;
12026;SDS011;6074;52.676;7.284;2022-08-11T08:35:17;0.80;;;0.80;;
12026;SDS011;6074;52.676;7.284;2022-08-11T08:37:45;0.70;;;0.70;;
12026;SDS011;6074;52.676;7.284;2022-08-11T08:40:16;0.70;;;0.70;;
12026;SDS011;6074;52.676;7.284;2022-08-11T08:42:46;0.80;;;0.80;;
12026;SDS011;6074;52.676;7.284;2022-08-11T08:45:18;0.70;;;0.70;;
12026;SDS011;6074;52.676;7.284;2022-08-11T08:47:46;0.70;;;0.70;;
12026;SDS011;6074;52.676;7.284;2022-08-11T08:50:19;0.70;;;0.70;;
12026;SDS011;6074;52.676;7.284;2022-08-11T08:53:08;0.93;;;0.93;;
12026;SDS011;6074;52.676;7.284;2022-08-11T08:55:36;0.87;;;0.87;;
12026;SDS011;6074;52.676;7.284;2022-08-11T08:58:06;0.80;;;0.80;;
12026;SDS011;6074;52.676;7.284;2022-08-11T09:00:36;0.70;;;0.70;;
12026;SDS011;6074;52.676;7.284;2022-08-11T09:03:05;0.70;;;0.70;;
12026;SDS011;6074;52.676;7.284;2022-08-11T09:05:33;0.70;;;0.70;;
12026;SDS011;6074;52.676;7.284;2022-08-11T09:08:00;0.70;;;0.70;;
12026;SDS011;6074;52.676;7.284;2022-08-11T09:10:27;0.80;;;0.80;;
12026;SDS011;6074;52.676;7.284;2022-08-11T09:12:55;0.80;;;0.80;;
12026;SDS011;6074;52.676;7.284;2022-08-11T09:15:25;0.70;;;0.70;;
12026;SDS011;6074;52.676;7.284;2022-08-11T09:17:53;0.80;;;0.80;;
12026;SDS011;6074;52.676;7.284;2022-08-11T09:20:27;0.80;;;0.80;;
12026;SDS011;6074;52.676;7.284;2022-08-11T09:23:00;0.90;;;0.90;;
12026;SDS011;6074;52.676;7.284;2022-08-11T09:25:46;0.90;;;0.90;;
12026;SDS011;6074;52.676;7.284;2022-08-11T09:28:32;0.90;;;0.90;;
12026;SDS011;6074;52.676;7.284;2022-08-11T09:31:02;0.80;;;0.80;;
12026;SDS011;6074;52.676;7.284;2022-08-11T09:33:31;0.70;;;0.70;;
12026;SDS011;6074;52.676;7.284;2022-08-11T09:36:00;0.85;;;0.85;;
12026;SDS011;6074;52.676;7.284;2022-08-11T09:38:49;0.80;;;0.80;;
12026;SDS011;6074;52.676;7.284;2022-08-11T09:41:34;0.85;;;0.85;;
12026;SDS011;6074;52.676;7.284;2022-08-11T09:44:01;0.95;;;0.95;;
12026;SDS011;6074;52.676;7.284;2022-08-11T09:46:48;0.90;;;0.90;;
12026;SDS011;6074;52.676;7.284;2022-08-11T09:49:18;0.80;;;0.80;;
12026;SDS011;6074;52.676;7.284;2022-08-11T09:51:46;1.10;;;1.10;;
12026;SDS011;6074;52.676;7.284;2022-08-11T09:54:15;1.05;;;1.05;;
12026;SDS011;6074;52.676;7.284;2022-08-11T09:56:43;0.90;;;0.90;;
12026;SDS011;6074;52.676;7.284;2022-08-11T09:59:28;0.90;;;0.90;;
12026;SDS011;6074;52.676;7.284;2022-08-11T10:01:59;0.90;;;0.90;;
12026;SDS011;6074;52.676;7.284;2022-08-11T10:04:30;1.00;;;1.00;;
12026;SDS011;6074;52.676;7.284;2022-08-11T10:07:01;0.90;;;0.90;;
12026;SDS011;6074;52.676;7.284;2022-08-11T10:09:33;0.90;;;0.90;;
12026;SDS011;6074;52.676;7.284;2022-08-11T10:12:15;0.95;;;0.95;;
12026;SDS011;6074;52.676;7.284;2022-08-11T10:14:49;0.80;;;0.80;;
12026;SDS011;6074;52.676;7.284;2022-08-11T10:17:38;0.85;;;0.85;;
12026;SDS011;6074;52.676;7.284;2022-08-11T10:20:30;1.00;;;1.00;;
12026;SDS011;6074;52.676;7.284;2022-08-11T10:22:59;0.95;;;0.95;;
12026;SDS011;6074;52.676;7.284;2022-08-11T10:25:45;0.90;;;0.90;;
12026;SDS011;6074;52.676;7.284;2022-08-11T10:28:30;1.00;;;1.00;;
12026;SDS011;6074;52.676;7.284;2022-08-11T10:30:57;0.95;;;0.95;;
12026;SDS011;6074;52.676;7.284;2022-08-11T10:33:44;0.90;;;0.90;;
12026;SDS011;6074;52.676;7.284;2022-08-11T10:36:37;1.00;;;1.00;;
12026;SDS011;6074;52.676;7.284;2022-08-11T10:39:09;1.00;;;1.00;;
12026;SDS011;6074;52.676;7.284;2022-08-11T10:41:41;1.17;;;1.17;;
12026;SDS011;6074;52.676;7.284;2022-08-11T10:44:28;1.00;;;1.00;;
12026;SDS011;6074;52.676;7.284;2022-08-11T10:46:58;1.10;;;1.10;;
12026;SDS011;6074;52.676;7.284;2022-08-11T10:49:45;0.90;;;0.90;;
12026;SDS011;6074;52.676;7.284;2022-08-11T10:52:33;1.00;;;1.00;;
12026;SDS011;6074;52.676;7.284;2022-08-11T10:55:19;1.00;;;1.00;;
12026;SDS011;6074;52.676;7.284;2022-08-11T10:58:04;1.00;;;1.00;;
12026;SDS011;6074;52.676;7.284;2022-08-11T11:00:48;1.00;;;1.00;;
12026;SDS011;6074;52.676;7.284;2022-08-11T11:03:20;1.00;;;1.00;;
12026;SDS011;6074;52.676;7.284;2022-08-11T11:05:49;1.00;;;1.00;;
12026;SDS011;6074;52.676;7.284;2022-08-11T11:08:17;1.10;;;1.10;;
12026;SDS011;6074;52.676;7.284;2022-08-11T11:11:22;1.00;;;1.00;;
12026;SDS011;6074;52.676;7.284;2022-08-11T11:14:14;1.10;;;1.10;;
12026;SDS011;6074;52.676;7.284;2022-08-11T11:17:02;1.10;;;1.10;;
12026;SDS011;6074;52.676;7.284;2022-08-11T11:19:48;1.08;;;1.08;;
12026;SDS011;6074;52.676;7.284;2022-08-11T11:22:22;1.00;;;1.00;;
12026;SDS011;6074;52.676;7.284;2022-08-11T11:25:06;1.20;;;1.20;;
12026;SDS011;6074;52.676;7.284;2022-08-11T11:27:44;1.10;;;1.10;;
12026;SDS011;6074;52.676;7.284;2022-08-11T11:30:19;1.15;;;1.15;;
12026;SDS011;6074;52.676;7.284;2022-08-11T11:32:51;1.02;;;1.02;;
12026;SDS011;6074;52.676;7.284;2022-08-11T11:35:30;1.27;;;1.27;;
12026;SDS011;6074;52.676;7.284;2022-08-11T11:38:08;0.90;;;0.90;;
12026;SDS011;6074;52.676;7.284;2022-08-11T11:40:37;1.00;;;1.00;;
12026;SDS011;6074;52.676;7.284;2022-08-11T11:43:05;1.00;;;1.00;;
12026;SDS011;6074;52.676;7.284;2022-08-11T11:45:32;1.13;;;1.13;;
12026;SDS011;6074;52.676;7.284;2022-08-11T11:47:59;1.05;;;1.05;;
12026;SDS011;6074;52.676;7.284;2022-08-11T11:50:27;1.05;;;1.05;;
12026;SDS011;6074;52.676;7.284;2022-08-11T11:52:55;0.90;;;0.90;;
12026;SDS011;6074;52.676;7.284;2022-08-11T11:55:26;0.90;;;0.90;;
12026;SDS011;6074;52.676;7.284;2022-08-11T11:57:54;0.90;;;0.90;;
12026;SDS011;6074;52.676;7.284;2022-08-11T12:03:09;1.13;;;1.13;;
12026;SDS011;6074;52.676;7.284;2022-08-11T12:05:37;0.90;;;0.90;;
12026;SDS011;6074;52.676;7.284;2022-08-11T12:08:04;0.90;;;0.90;;
12026;SDS011;6074;52.676;7.284;2022-08-11T12:10:39;1.02;;;1.02;;
12026;SDS011;6074;52.676;7.284;2022-08-11T12:13:09;1.00;;;1.00;;
12026;SDS011;6074;52.676;7.284;2022-08-11T12:15:55;0.90;;;0.90;;
12026;SDS011;6074;52.676;7.284;2022-08-11T12:18:28;0.90;;;0.90;;
12026;SDS011;6074;52.676;7.284;2022-08-11T12:20:57;0.90;;;0.90;;
12026;SDS011;6074;52.676;7.284;2022-08-11T12:23:25;1.10;;;1.10;;
12026;SDS011;6074;52.676;7.284;2022-08-11T12:26:11;1.00;;;1.00;;
12026;SDS011;6074;52.676;7.284;2022-08-11T12:28:57;1.10;;;1.10;;
12026;SDS011;6074;52.676;7.284;2022-08-11T12:31:25;1.00;;;1.00;;
12026;SDS011;6074;52.676;7.284;2022-08-11T12:33:58;0.90;;;0.90;;
12026;SDS011;6074;52.676;7.284;2022-08-11T12:36:26;0.98;;;0.98;;
12026;SDS011;6074;52.676;7.284;2022-08-11T12:38:53;0.90;;;0.90;;
12026;SDS011;6074;52.676;7.284;2022-08-11T12:41:22;0.88;;;0.88;;
12026;SDS011;6074;52.676;7.284;2022-08-11T12:44:07;1.08;;;1.08;;
12026;SDS011;6074;52.676;7.284;2022-08-11T12:46:53;1.10;;;1.10;;
12026;SDS011;6074;52.676;7.284;2022-08-11T12:49:23;0.80;;;0.80;;
12026;SDS011;6074;52.676;7.284;2022-08-11T12:52:09;0.80;;;0.80;;
12026;SDS011;6074;52.676;7.284;2022-08-11T12:54:47;0.90;;;0.90;;
12026;SDS011;6074;52.676;7.284;2022-08-11T12:57:24;1.13;;;1.13;;
12026;SDS011;6074;52.676;7.284;2022-08-11T13:00:11;0.90;;;0.90;;
12026;SDS011;6074;52.676;7.284;2022-08-11T13:02:56;0.90;;;0.90;;
12026;SDS011;6074;52.676;7.284;2022-08-11T13:05:41;1.10;;;1.10;;
12026;SDS011;6074;52.676;7.284;2022-08-11T13:08:09;1.20;;;1.20;;
12026;SDS011;6074;52.676;7.284;2022-08-11T13:10:37;0.80;;;0.80;;
12026;SDS011;6074;52.676;7.284;2022-08-11T13:13:23;1.05;;;1.05;;
12026;SDS011;6074;52.676;7.284;2022-08-11T13:15:51;1.00;;;1.00;;
12026;SDS011;6074;52.676;7.284;2022-08-11T13:18:19;0.90;;;0.90;;
12026;SDS011;6074;52.676;7.284;2022-08-11T13:20:48;0.98;;;0.98;;
12026;SDS011;6074;52.676;7.284;2022-08-11T13:23:17;1.00;;;1.00;;
12026;SDS011;6074;52.676;7.284;2022-08-11T13:25:44;1.00;;;1.00;;
12026;SDS011;6074;52.676;7.284;2022-08-11T13:28:12;0.98;;;0.98;;
12026;SDS011;6074;52.676;7.284;2022-08-11T13:30:43;0.90;;;0.90;;
12026;SDS011;6074;52.676;7.284;2022-08-11T13:33:28;1.00;;;1.00;;
12026;SDS011;6074;52.676;7.284;2022-08-11T13:35:57;0.90;;;0.90;;
12026;SDS011;6074;52.676;7.284;2022-08-11T13:38:24;0.98;;;0.98;;
12026;SDS011;6074;52.676;7.284;2022-08-11T13:40:53;1.17;;;1.17;;
12026;SDS011;6074;52.676;7.284;2022-08-11T13:43:22;1.20;;;1.20;;
12026;SDS011;6074;52.676;7.284;2022-08-11T13:45:51;0.90;;;0.90;;
12026;SDS011;6074;52.676;7.284;2022-08-11T13:48:39;0.90;;;0.90;;
12026;SDS011;6074;52.676;7.284;2022-08-11T13:51:07;1.10;;;1.10;;
12026;SDS011;6074;52.676;7.284;2022-08-11T13:53:52;1.20;;;1.20;;
12026;SDS011;6074;52.676;7.284;2022-08-11T13:56:20;0.90;;;0.90;;
12026;SDS011;6074;52.676;7.284;2022-08-11T13:58:47;0.90;;;0.90;;
12026;SDS011;6074;52.676;7.284;2022-08-11T14:01:16;0.93;;;0.93;;
12026;SDS011;6074;52.676;7.284;2022-08-11T14:03:45;1.10;;;1.10;;
12026;SDS011;6074;52.676;7.284;2022-08-11T14:06:12;0.90;;;0.90;;
12026;SDS011;6074;52.676;7.284;2022-08-11T14:08:42;1.20;;;1.20;;
12026;SDS011;6074;52.676;7.284;2022-08-11T14:11:10;1.00;;;1.00;;
12026;SDS011;6074;52.676;7.284;2022-08-11T14:13:57;0.98;;;0.98;;
12026;SDS011;6074;52.676;7.284;2022-08-11T14:16:27;1.00;;;1.00;;
12026;SDS011;6074;52.676;7.284;2022-08-11T14:18:58;0.98;;;0.98;;
12026;SDS011;6074;52.676;7.284;2022-08-11T14:21:28;0.90;;;0.90;;
12026;SDS011;6074;52.676;7.284;2022-08-11T14:24:16;0.90;;;0.90;;
12026;SDS011;6074;52.676;7.284;2022-08-11T14:26:43;1.00;;;1.00;;
12026;SDS011;6074;52.676;7.284;2022-08-11T14:29:14;0.90;;;0.90;;
12026;SDS011;6074;52.676;7.284;2022-08-11T14:31:44;1.05;;;1.05;;
12026;SDS011;6074;52.676;7.284;2022-08-11T14:34:13;1.00;;;1.00;;
12026;SDS011;6074;52.676;7.284;2022-08-11T14:36:46;1.00;;;1.00;;
12026;SDS011;6074;52.676;7.284;2022-08-11T14:39:17;1.00;;;1.00;;
12026;SDS011;6074;52.676;7.284;2022-08-11T14:41:47;1.00;;;1.00;;
12026;SDS011;6074;52.676;7.284;2022-08-11T14:44:34;0.95;;;0.95;;
12026;SDS011;6074;52.676;7.284;2022-08-11T14:47:21;1.10;;;1.10;;
12026;SDS011;6074;52.676;7.284;2022-08-11T14:49:49;1.35;;;1.35;;
12026;SDS011;6074;52.676;7.284;2022-08-11T14:52:16;1.10;;;1.10;;
12026;SDS011;6074;52.676;7.284;2022-08-11T14:54:45;0.90;;;0.90;;
12026;SDS011;6074;52.676;7.284;2022-08-11T14:57:32;0.90;;;0.90;;
12026;SDS011;6074;52.676;7.284;2022-08-11T15:00:03;1.00;;;1.00;;
12026;SDS011;6074;52.676;7.284;2022-08-11T15:02:33;0.93;;;0.93;;
12026;SDS011;6074;52.676;7.284;2022-08-11T15:05:20;1.00;;;1.00;;
12026;SDS011;6074;52.676;7.284;2022-08-11T15:07:48;1.10;;;1.10;;
12026;SDS011;6074;52.676;7.284;2022-08-11T15:10:17;0.90;;;0.90;;
12026;SDS011;6074;52.676;7.284;2022-08-11T15:12:44;0.95;;;0.95;;
12026;SDS011;6074;52.676;7.284;2022-08-11T15:15:12;1.00;;;1.00;;
12026;SDS011;6074;52.676;7.284;2022-08-11T15:18:00;0.90;;;0.90;;
12026;SDS011;6074;52.676;7.284;2022-08-11T15:20:30;0.95;;;0.95;;
12026;SDS011;6074;52.676;7.284;2022-08-11T15:23:14;1.10;;;1.10;;
12026;SDS011;6074;52.676;7.284;2022-08-11T15:26:00;0.90;;;0.90;;
12026;SDS011;6074;52.676;7.284;2022-08-11T15:28:31;1.00;;;1.00;;
12026;SDS011;6074;52.676;7.284;2022-08-11T15:31:20;0.90;;;0.90;;
12026;SDS011;6074;52.676;7.284;2022-08-11T15:34:10;0.95;;;0.95;;
12026;SDS011;6074;52.676;7.284;2022-08-11T15:36:59;0.90;;;0.90;;
12026;SDS011;6074;52.676;7.284;2022-08-11T15:39:50;0.90;;;0.90;;
12026;SDS011;6074;52.676;7.284;2022-08-11T15:42:38;1.00;;;1.00;;
12026;SDS011;6074;52.676;7.284;2022-08-11T15:45:30;1.00;;;1.00;;
12026;SDS011;6074;52.676;7.284;2022-08-11T15:48:19;1.00;;;1.00;;
12026;SDS011;6074;52.676;7.284;2022-08-11T15:50:56;0.90;;;0.90;;
12026;SDS011;6074;52.676;7.284;2022-08-11T15:53:33;1.10;;;1.10;;
12026;SDS011;6074;52.676;7.284;2022-08-11T15:56:06;0.80;;;0.80;;
12026;SDS011;6074;52.676;7.284;2022-08-11T15:58:35;0.90;;;0.90;;
12026;SDS011;6074;52.676;7.284;2022-08-11T16:01:35;0.95;;;0.95;;
12026;SDS011;6074;52.676;7.284;2022-08-11T16:04:23;0.90;;;0.90;;
12026;SDS011;6074;52.676;7.284;2022-08-11T16:06:56;0.80;;;0.80;;
12026;SDS011;6074;52.676;7.284;2022-08-11T16:09:27;0.90;;;0.90;;
12026;SDS011;6074;52.676;7.284;2022-08-11T16:11:59;1.02;;;1.02;;
12026;SDS011;6074;52.676;7.284;2022-08-11T16:14:29;0.90;;;0.90;;
12026;SDS011;6074;52.676;7.284;2022-08-11T16:17:18;1.08;;;1.08;;
12026;SDS011;6074;52.676;7.284;2022-08-11T16:19:49;0.80;;;0.80;;
12026;SDS011;6074;52.676;7.284;2022-08-11T16:22:20;0.90;;;0.90;;
12026;SDS011;6074;52.676;7.284;2022-08-11T16:24:59;0.90;;;0.90;;
12026;SDS011;6074;52.676;7.284;2022-08-11T16:27:28;0.90;;;0.90;;
12026;SDS011;6074;52.676;7.284;2022-08-11T16:29:58;0.90;;;0.90;;
12026;SDS011;6074;52.676;7.284;2022-08-11T16:32:26;0.93;;;0.93;;
12026;SDS011;6074;52.676;7.284;2022-08-11T16:34:56;0.90;;;0.90;;
12026;SDS011;6074;52.676;7.284;2022-08-11T16:37:45;0.90;;;0.90;;
12026;SDS011;6074;52.676;7.284;2022-08-11T16:40:31;0.90;;;0.90;;
12026;SDS011;6074;52.676;7.284;2022-08-11T16:42:59;0.88;;;0.88;;
12026;SDS011;6074;52.676;7.284;2022-08-11T16:45:46;0.93;;;0.93;;
12026;SDS011;6074;52.676;7.284;2022-08-11T16:48:31;0.90;;;0.90;;
12026;SDS011;6074;52.676;7.284;2022-08-11T16:51:01;1.00;;;1.00;;
12026;SDS011;6074;52.676;7.284;2022-08-11T16:53:29;0.90;;;0.90;;
12026;SDS011;6074;52.676;7.284;2022-08-11T16:55:57;1.02;;;1.02;;